sensor_id;sensor_type;location;lat;lon;timestamp;P1;durP1;ratioP1;P2;durP2;ratioP2
32826;SDS011;51059;42.058;27.986;2022-07-10T00:00:12;12.68;;;5.03;;
32826;SDS011;51059;42.058;27.986;2022-07-10T00:02:40;14.27;;;5.53;;
32826;SDS011;51059;42.058;27.986;2022-07-10T00:05:07;15.90;;;5.28;;
32826;SDS011;51059;42.058;27.986;2022-07-10T00:07:33;6.93;;;4.73;;
32826;SDS011;51059;42.058;27.986;2022-07-10T00:09:59;10.37;;;5.37;;
32826;SDS011;51059;42.058;27.986;2022-07-10T00:12:25;12.37;;;5.00;;
32826;SDS011;51059;42.058;27.986;2022-07-10T00:14:51;8.40;;;4.90;;
32826;SDS011;51059;42.058;27.986;2022-07-10T00:17:16;12.90;;;5.03;;
32826;SDS011;51059;42.058;27.986;2022-07-10T00:19:42;12.40;;;5.03;;
32826;SDS011;51059;42.058;27.986;2022-07-10T00:22:08;11.07;;;4.97;;
32826;SDS011;51059;42.058;27.986;2022-07-10T00:24:33;10.77;;;5.10;;
32826;SDS011;51059;42.058;27.986;2022-07-10T00:26:59;11.50;;;5.20;;
32826;SDS011;51059;42.058;27.986;2022-07-10T00:29:25;12.57;;;5.13;;
32826;SDS011;51059;42.058;27.986;2022-07-10T00:31:50;12.00;;;5.37;;
32826;SDS011;51059;42.058;27.986;2022-07-10T00:34:16;15.97;;;5.33;;
32826;SDS011;51059;42.058;27.986;2022-07-10T00:36:41;14.47;;;5.60;;
32826;SDS011;51059;42.058;27.986;2022-07-10T00:39:08;11.93;;;5.17;;
32826;SDS011;51059;42.058;27.986;2022-07-10T00:41:33;13.17;;;5.00;;
32826;SDS011;51059;42.058;27.986;2022-07-10T00:43:59;19.65;;;5.97;;
32826;SDS011;51059;42.058;27.986;2022-07-10T00:46:26;10.07;;;5.07;;
32826;SDS011;51059;42.058;27.986;2022-07-10T00:48:53;13.82;;;5.38;;
32826;SDS011;51059;42.058;27.986;2022-07-10T00:51:19;12.93;;;5.47;;
32826;SDS011;51059;42.058;27.986;2022-07-10T00:53:47;21.00;;;6.13;;
32826;SDS011;51059;42.058;27.986;2022-07-10T00:56:17;17.03;;;5.77;;
32826;SDS011;51059;42.058;27.986;2022-07-10T00:58:47;17.67;;;5.67;;
32826;SDS011;51059;42.058;27.986;2022-07-10T01:01:14;14.70;;;5.67;;
32826;SDS011;51059;42.058;27.986;2022-07-10T01:03:40;12.97;;;5.47;;
32826;SDS011;51059;42.058;27.986;2022-07-10T01:06:06;13.35;;;5.45;;
32826;SDS011;51059;42.058;27.986;2022-07-10T01:08:32;12.90;;;5.18;;
32826;SDS011;51059;42.058;27.986;2022-07-10T01:10:58;10.83;;;5.33;;
32826;SDS011;51059;42.058;27.986;2022-07-10T01:13:24;12.03;;;5.87;;
32826;SDS011;51059;42.058;27.986;2022-07-10T01:15:50;11.97;;;4.80;;
32826;SDS011;51059;42.058;27.986;2022-07-10T01:18:16;13.03;;;5.57;;
32826;SDS011;51059;42.058;27.986;2022-07-10T01:20:41;13.27;;;6.10;;
32826;SDS011;51059;42.058;27.986;2022-07-10T01:23:07;10.90;;;5.17;;
32826;SDS011;51059;42.058;27.986;2022-07-10T01:25:33;12.20;;;6.10;;
32826;SDS011;51059;42.058;27.986;2022-07-10T01:27:58;15.38;;;6.43;;
32826;SDS011;51059;42.058;27.986;2022-07-10T01:30:24;12.38;;;5.60;;
32826;SDS011;51059;42.058;27.986;2022-07-10T01:32:50;11.23;;;5.60;;
32826;SDS011;51059;42.058;27.986;2022-07-10T01:35:17;12.40;;;5.88;;
32826;SDS011;51059;42.058;27.986;2022-07-10T01:37:43;15.40;;;5.73;;
32826;SDS011;51059;42.058;27.986;2022-07-10T01:40:09;14.63;;;5.87;;
32826;SDS011;51059;42.058;27.986;2022-07-10T01:42:35;11.93;;;5.53;;
32826;SDS011;51059;42.058;27.986;2022-07-10T01:45:02;18.30;;;6.53;;
32826;SDS011;51059;42.058;27.986;2022-07-10T01:47:32;15.60;;;6.17;;
32826;SDS011;51059;42.058;27.986;2022-07-10T01:49:58;14.95;;;5.68;;
32826;SDS011;51059;42.058;27.986;2022-07-10T01:52:24;16.23;;;6.83;;
32826;SDS011;51059;42.058;27.986;2022-07-10T01:54:49;17.73;;;6.20;;
32826;SDS011;51059;42.058;27.986;2022-07-10T01:57:15;15.13;;;6.60;;
32826;SDS011;51059;42.058;27.986;2022-07-10T01:59:40;17.13;;;6.90;;
32826;SDS011;51059;42.058;27.986;2022-07-10T02:02:06;26.10;;;6.93;;
32826;SDS011;51059;42.058;27.986;2022-07-10T02:04:32;20.97;;;6.03;;
32826;SDS011;51059;42.058;27.986;2022-07-10T02:07:11;13.10;;;6.83;;
32826;SDS011;51059;42.058;27.986;2022-07-10T02:09:37;18.00;;;6.87;;
32826;SDS011;51059;42.058;27.986;2022-07-10T02:12:10;19.23;;;7.23;;
32826;SDS011;51059;42.058;27.986;2022-07-10T02:14:38;15.67;;;6.80;;
32826;SDS011;51059;42.058;27.986;2022-07-10T02:17:05;22.23;;;6.57;;
32826;SDS011;51059;42.058;27.986;2022-07-10T02:19:30;17.13;;;7.07;;
32826;SDS011;51059;42.058;27.986;2022-07-10T02:21:56;21.03;;;7.17;;
32826;SDS011;51059;42.058;27.986;2022-07-10T02:24:22;19.33;;;6.90;;
32826;SDS011;51059;42.058;27.986;2022-07-10T02:26:48;13.53;;;7.30;;
32826;SDS011;51059;42.058;27.986;2022-07-10T02:29:14;20.70;;;7.70;;
32826;SDS011;51059;42.058;27.986;2022-07-10T02:31:40;21.13;;;6.87;;
32826;SDS011;51059;42.058;27.986;2022-07-10T02:34:08;18.33;;;6.77;;
32826;SDS011;51059;42.058;27.986;2022-07-10T02:36:35;15.67;;;6.53;;
32826;SDS011;51059;42.058;27.986;2022-07-10T02:39:02;17.23;;;6.97;;
32826;SDS011;51059;42.058;27.986;2022-07-10T02:41:28;13.55;;;6.40;;
32826;SDS011;51059;42.058;27.986;2022-07-10T02:43:54;12.83;;;6.97;;
32826;SDS011;51059;42.058;27.986;2022-07-10T02:46:19;23.87;;;7.20;;
32826;SDS011;51059;42.058;27.986;2022-07-10T02:48:45;18.57;;;6.97;;
32826;SDS011;51059;42.058;27.986;2022-07-10T02:51:11;10.37;;;5.80;;
32826;SDS011;51059;42.058;27.986;2022-07-10T02:53:36;19.97;;;6.83;;
32826;SDS011;51059;42.058;27.986;2022-07-10T02:56:02;15.13;;;6.60;;
32826;SDS011;51059;42.058;27.986;2022-07-10T02:58:27;19.87;;;6.70;;
32826;SDS011;51059;42.058;27.986;2022-07-10T03:00:53;20.77;;;7.23;;
32826;SDS011;51059;42.058;27.986;2022-07-10T03:03:19;15.80;;;6.47;;
32826;SDS011;51059;42.058;27.986;2022-07-10T03:05:45;17.37;;;7.23;;
32826;SDS011;51059;42.058;27.986;2022-07-10T03:08:11;14.73;;;6.50;;
32826;SDS011;51059;42.058;27.986;2022-07-10T03:10:36;16.13;;;6.40;;
32826;SDS011;51059;42.058;27.986;2022-07-10T03:13:02;15.10;;;6.43;;
32826;SDS011;51059;42.058;27.986;2022-07-10T03:15:28;17.20;;;6.80;;
32826;SDS011;51059;42.058;27.986;2022-07-10T03:17:53;15.00;;;6.18;;
32826;SDS011;51059;42.058;27.986;2022-07-10T03:20:19;14.97;;;6.40;;
32826;SDS011;51059;42.058;27.986;2022-07-10T03:22:45;17.37;;;6.70;;
32826;SDS011;51059;42.058;27.986;2022-07-10T03:25:10;15.53;;;6.40;;
32826;SDS011;51059;42.058;27.986;2022-07-10T03:27:36;15.33;;;5.70;;
32826;SDS011;51059;42.058;27.986;2022-07-10T03:30:02;7.70;;;5.90;;
32826;SDS011;51059;42.058;27.986;2022-07-10T03:32:28;12.50;;;5.83;;
32826;SDS011;51059;42.058;27.986;2022-07-10T03:34:54;14.73;;;6.20;;
32826;SDS011;51059;42.058;27.986;2022-07-10T03:37:19;14.97;;;6.40;;
32826;SDS011;51059;42.058;27.986;2022-07-10T03:39:45;10.13;;;5.70;;
32826;SDS011;51059;42.058;27.986;2022-07-10T03:42:11;9.53;;;5.83;;
32826;SDS011;51059;42.058;27.986;2022-07-10T03:44:36;11.73;;;6.10;;
32826;SDS011;51059;42.058;27.986;2022-07-10T03:47:02;8.87;;;5.50;;
32826;SDS011;51059;42.058;27.986;2022-07-10T03:49:28;8.50;;;5.43;;
32826;SDS011;51059;42.058;27.986;2022-07-10T03:51:54;14.10;;;6.17;;
32826;SDS011;51059;42.058;27.986;2022-07-10T03:54:19;10.07;;;5.60;;
32826;SDS011;51059;42.058;27.986;2022-07-10T03:56:45;13.30;;;5.93;;
32826;SDS011;51059;42.058;27.986;2022-07-10T03:59:29;16.23;;;5.68;;
32826;SDS011;51059;42.058;27.986;2022-07-10T04:01:55;14.77;;;6.00;;
32826;SDS011;51059;42.058;27.986;2022-07-10T04:04:20;10.70;;;6.20;;
32826;SDS011;51059;42.058;27.986;2022-07-10T04:06:46;14.87;;;6.03;;
32826;SDS011;51059;42.058;27.986;2022-07-10T04:09:11;12.57;;;5.82;;
32826;SDS011;51059;42.058;27.986;2022-07-10T04:11:37;15.90;;;6.27;;
32826;SDS011;51059;42.058;27.986;2022-07-10T04:14:03;12.05;;;6.10;;
32826;SDS011;51059;42.058;27.986;2022-07-10T04:16:28;13.67;;;6.63;;
32826;SDS011;51059;42.058;27.986;2022-07-10T04:18:54;14.98;;;6.57;;
32826;SDS011;51059;42.058;27.986;2022-07-10T04:21:19;14.90;;;6.70;;
32826;SDS011;51059;42.058;27.986;2022-07-10T04:23:45;15.65;;;7.07;;
32826;SDS011;51059;42.058;27.986;2022-07-10T04:26:11;11.43;;;6.18;;
32826;SDS011;51059;42.058;27.986;2022-07-10T04:28:36;19.73;;;6.90;;
32826;SDS011;51059;42.058;27.986;2022-07-10T04:31:02;11.30;;;6.23;;
32826;SDS011;51059;42.058;27.986;2022-07-10T04:33:27;13.50;;;6.57;;
32826;SDS011;51059;42.058;27.986;2022-07-10T04:35:53;18.92;;;6.45;;
32826;SDS011;51059;42.058;27.986;2022-07-10T04:38:18;14.40;;;6.32;;
32826;SDS011;51059;42.058;27.986;2022-07-10T04:40:44;17.33;;;6.43;;
32826;SDS011;51059;42.058;27.986;2022-07-10T04:43:10;12.63;;;6.20;;
32826;SDS011;51059;42.058;27.986;2022-07-10T04:45:36;13.23;;;5.88;;
32826;SDS011;51059;42.058;27.986;2022-07-10T04:48:03;14.03;;;6.30;;
32826;SDS011;51059;42.058;27.986;2022-07-10T04:50:29;13.55;;;6.10;;
32826;SDS011;51059;42.058;27.986;2022-07-10T04:52:55;15.27;;;6.17;;
32826;SDS011;51059;42.058;27.986;2022-07-10T04:55:21;17.97;;;6.97;;
32826;SDS011;51059;42.058;27.986;2022-07-10T04:57:47;20.33;;;6.87;;
32826;SDS011;51059;42.058;27.986;2022-07-10T05:00:13;13.77;;;6.70;;
32826;SDS011;51059;42.058;27.986;2022-07-10T05:02:39;11.97;;;6.20;;
32826;SDS011;51059;42.058;27.986;2022-07-10T05:05:05;11.33;;;6.60;;
32826;SDS011;51059;42.058;27.986;2022-07-10T05:07:31;10.10;;;5.67;;
32826;SDS011;51059;42.058;27.986;2022-07-10T05:09:56;7.67;;;5.40;;
32826;SDS011;51059;42.058;27.986;2022-07-10T05:12:22;7.13;;;6.03;;
32826;SDS011;51059;42.058;27.986;2022-07-10T05:14:47;7.47;;;5.57;;
32826;SDS011;51059;42.058;27.986;2022-07-10T05:17:13;6.53;;;5.83;;
32826;SDS011;51059;42.058;27.986;2022-07-10T05:19:38;8.15;;;5.40;;
32826;SDS011;51059;42.058;27.986;2022-07-10T05:22:04;11.32;;;5.55;;
32826;SDS011;51059;42.058;27.986;2022-07-10T05:24:29;6.40;;;5.63;;
32826;SDS011;51059;42.058;27.986;2022-07-10T05:26:55;7.20;;;5.67;;
32826;SDS011;51059;42.058;27.986;2022-07-10T05:29:21;10.63;;;5.97;;
32826;SDS011;51059;42.058;27.986;2022-07-10T05:31:46;8.07;;;5.53;;
32826;SDS011;51059;42.058;27.986;2022-07-10T05:34:12;10.73;;;5.90;;
32826;SDS011;51059;42.058;27.986;2022-07-10T05:36:37;7.57;;;5.17;;
32826;SDS011;51059;42.058;27.986;2022-07-10T05:39:03;6.33;;;5.57;;
32826;SDS011;51059;42.058;27.986;2022-07-10T05:41:29;8.57;;;5.57;;
32826;SDS011;51059;42.058;27.986;2022-07-10T05:43:54;7.40;;;4.90;;
32826;SDS011;51059;42.058;27.986;2022-07-10T05:46:20;9.47;;;6.20;;
32826;SDS011;51059;42.058;27.986;2022-07-10T05:48:46;10.15;;;5.75;;
32826;SDS011;51059;42.058;27.986;2022-07-10T05:51:11;15.27;;;5.70;;
32826;SDS011;51059;42.058;27.986;2022-07-10T05:53:37;9.25;;;5.70;;
32826;SDS011;51059;42.058;27.986;2022-07-10T05:56:03;11.02;;;5.15;;
32826;SDS011;51059;42.058;27.986;2022-07-10T05:58:28;8.98;;;4.90;;
32826;SDS011;51059;42.058;27.986;2022-07-10T06:00:54;8.70;;;5.03;;
32826;SDS011;51059;42.058;27.986;2022-07-10T06:03:20;12.40;;;4.70;;
32826;SDS011;51059;42.058;27.986;2022-07-10T06:05:46;7.10;;;4.50;;
32826;SDS011;51059;42.058;27.986;2022-07-10T06:08:12;10.88;;;5.65;;
32826;SDS011;51059;42.058;27.986;2022-07-10T06:10:38;10.45;;;5.45;;
32826;SDS011;51059;42.058;27.986;2022-07-10T06:13:05;7.80;;;4.80;;
32826;SDS011;51059;42.058;27.986;2022-07-10T06:15:31;12.15;;;5.32;;
32826;SDS011;51059;42.058;27.986;2022-07-10T06:17:57;9.23;;;5.18;;
32826;SDS011;51059;42.058;27.986;2022-07-10T06:20:24;11.93;;;5.07;;
32826;SDS011;51059;42.058;27.986;2022-07-10T06:22:50;10.85;;;4.93;;
32826;SDS011;51059;42.058;27.986;2022-07-10T06:25:16;13.98;;;5.00;;
32826;SDS011;51059;42.058;27.986;2022-07-10T06:27:41;7.60;;;4.97;;
32826;SDS011;51059;42.058;27.986;2022-07-10T06:30:07;9.63;;;4.63;;
32826;SDS011;51059;42.058;27.986;2022-07-10T06:32:33;11.82;;;5.22;;
32826;SDS011;51059;42.058;27.986;2022-07-10T06:34:59;14.65;;;5.63;;
32826;SDS011;51059;42.058;27.986;2022-07-10T06:37:24;9.80;;;5.55;;
32826;SDS011;51059;42.058;27.986;2022-07-10T06:39:50;13.85;;;5.30;;
32826;SDS011;51059;42.058;27.986;2022-07-10T06:42:16;8.00;;;5.00;;
32826;SDS011;51059;42.058;27.986;2022-07-10T06:44:42;11.57;;;5.57;;
32826;SDS011;51059;42.058;27.986;2022-07-10T06:47:08;10.63;;;6.10;;
32826;SDS011;51059;42.058;27.986;2022-07-10T06:49:52;9.23;;;5.07;;
32826;SDS011;51059;42.058;27.986;2022-07-10T06:52:18;7.40;;;5.25;;
32826;SDS011;51059;42.058;27.986;2022-07-10T06:54:44;16.05;;;5.70;;
32826;SDS011;51059;42.058;27.986;2022-07-10T06:57:10;12.02;;;5.30;;
32826;SDS011;51059;42.058;27.986;2022-07-10T06:59:36;60.75;;;15.40;;
32826;SDS011;51059;42.058;27.986;2022-07-10T07:02:02;97.03;;;23.45;;
32826;SDS011;51059;42.058;27.986;2022-07-10T07:04:28;103.97;;;24.50;;
32826;SDS011;51059;42.058;27.986;2022-07-10T07:06:54;52.30;;;14.10;;
32826;SDS011;51059;42.058;27.986;2022-07-10T07:09:20;43.47;;;11.40;;
32826;SDS011;51059;42.058;27.986;2022-07-10T07:11:45;23.70;;;7.10;;
32826;SDS011;51059;42.058;27.986;2022-07-10T07:14:11;19.17;;;6.90;;
32826;SDS011;51059;42.058;27.986;2022-07-10T07:16:37;10.60;;;5.00;;
32826;SDS011;51059;42.058;27.986;2022-07-10T07:19:04;11.27;;;5.60;;
32826;SDS011;51059;42.058;27.986;2022-07-10T07:21:31;12.23;;;5.30;;
32826;SDS011;51059;42.058;27.986;2022-07-10T07:24:15;16.33;;;5.78;;
32826;SDS011;51059;42.058;27.986;2022-07-10T07:26:44;13.13;;;5.63;;
32826;SDS011;51059;42.058;27.986;2022-07-10T07:29:12;14.02;;;5.82;;
32826;SDS011;51059;42.058;27.986;2022-07-10T07:31:39;9.60;;;5.53;;
32826;SDS011;51059;42.058;27.986;2022-07-10T07:34:04;10.50;;;5.20;;
32826;SDS011;51059;42.058;27.986;2022-07-10T07:36:30;16.35;;;5.90;;
32826;SDS011;51059;42.058;27.986;2022-07-10T07:38:56;7.95;;;5.22;;
32826;SDS011;51059;42.058;27.986;2022-07-10T07:41:22;12.15;;;5.65;;
32826;SDS011;51059;42.058;27.986;2022-07-10T07:43:48;14.88;;;5.70;;
32826;SDS011;51059;42.058;27.986;2022-07-10T07:46:14;16.00;;;5.55;;
32826;SDS011;51059;42.058;27.986;2022-07-10T07:48:39;11.85;;;5.05;;
32826;SDS011;51059;42.058;27.986;2022-07-10T07:51:05;12.65;;;5.03;;
32826;SDS011;51059;42.058;27.986;2022-07-10T07:53:31;10.70;;;4.30;;
32826;SDS011;51059;42.058;27.986;2022-07-10T07:55:57;9.43;;;4.28;;
32826;SDS011;51059;42.058;27.986;2022-07-10T07:58:22;7.03;;;4.32;;
32826;SDS011;51059;42.058;27.986;2022-07-10T08:00:48;10.45;;;4.18;;
32826;SDS011;51059;42.058;27.986;2022-07-10T08:03:14;10.30;;;4.22;;
32826;SDS011;51059;42.058;27.986;2022-07-10T08:05:40;7.35;;;4.00;;
32826;SDS011;51059;42.058;27.986;2022-07-10T08:08:06;9.27;;;3.80;;
32826;SDS011;51059;42.058;27.986;2022-07-10T08:10:34;6.70;;;3.67;;
32826;SDS011;51059;42.058;27.986;2022-07-10T08:12:59;7.45;;;3.70;;
32826;SDS011;51059;42.058;27.986;2022-07-10T08:15:26;6.75;;;3.88;;
32826;SDS011;51059;42.058;27.986;2022-07-10T08:17:52;11.45;;;4.13;;
32826;SDS011;51059;42.058;27.986;2022-07-10T08:20:19;10.02;;;3.55;;
32826;SDS011;51059;42.058;27.986;2022-07-10T08:22:45;6.35;;;4.00;;
32826;SDS011;51059;42.058;27.986;2022-07-10T08:25:12;3.88;;;3.33;;
32826;SDS011;51059;42.058;27.986;2022-07-10T08:27:37;5.95;;;3.65;;
32826;SDS011;51059;42.058;27.986;2022-07-10T08:30:04;6.93;;;3.67;;
32826;SDS011;51059;42.058;27.986;2022-07-10T08:32:30;12.40;;;4.40;;
32826;SDS011;51059;42.058;27.986;2022-07-10T08:34:56;8.05;;;3.60;;
32826;SDS011;51059;42.058;27.986;2022-07-10T08:37:23;11.82;;;3.80;;
32826;SDS011;51059;42.058;27.986;2022-07-10T08:39:49;6.38;;;3.72;;
32826;SDS011;51059;42.058;27.986;2022-07-10T08:42:15;7.15;;;3.45;;
32826;SDS011;51059;42.058;27.986;2022-07-10T08:44:41;6.45;;;4.10;;
32826;SDS011;51059;42.058;27.986;2022-07-10T08:47:07;13.13;;;4.20;;
32826;SDS011;51059;42.058;27.986;2022-07-10T08:49:32;9.25;;;4.20;;
32826;SDS011;51059;42.058;27.986;2022-07-10T08:52:04;6.55;;;4.15;;
32826;SDS011;51059;42.058;27.986;2022-07-10T08:54:56;9.82;;;4.13;;
32826;SDS011;51059;42.058;27.986;2022-07-10T08:57:23;7.78;;;3.85;;
32826;SDS011;51059;42.058;27.986;2022-07-10T08:59:49;11.65;;;3.80;;
32826;SDS011;51059;42.058;27.986;2022-07-10T09:02:15;5.70;;;3.80;;
32826;SDS011;51059;42.058;27.986;2022-07-10T09:04:41;9.70;;;3.97;;
32826;SDS011;51059;42.058;27.986;2022-07-10T09:07:06;10.90;;;4.00;;
32826;SDS011;51059;42.058;27.986;2022-07-10T09:09:32;7.90;;;4.30;;
32826;SDS011;51059;42.058;27.986;2022-07-10T09:12:16;7.70;;;4.18;;
32826;SDS011;51059;42.058;27.986;2022-07-10T09:14:42;8.40;;;3.97;;
32826;SDS011;51059;42.058;27.986;2022-07-10T09:17:07;14.00;;;4.40;;
32826;SDS011;51059;42.058;27.986;2022-07-10T09:19:33;9.30;;;3.92;;
32826;SDS011;51059;42.058;27.986;2022-07-10T09:22:02;7.35;;;4.00;;
32826;SDS011;51059;42.058;27.986;2022-07-10T09:24:39;9.68;;;4.10;;
32826;SDS011;51059;42.058;27.986;2022-07-10T09:27:06;11.25;;;3.97;;
32826;SDS011;51059;42.058;27.986;2022-07-10T09:29:32;10.38;;;4.07;;
32826;SDS011;51059;42.058;27.986;2022-07-10T09:32:09;10.15;;;4.55;;
32826;SDS011;51059;42.058;27.986;2022-07-10T09:34:38;13.80;;;3.78;;
32826;SDS011;51059;42.058;27.986;2022-07-10T09:37:36;7.28;;;3.92;;
32826;SDS011;51059;42.058;27.986;2022-07-10T09:40:04;8.63;;;3.75;;
32826;SDS011;51059;42.058;27.986;2022-07-10T09:47:35;9.00;;;3.90;;
32826;SDS011;51059;42.058;27.986;2022-07-10T09:50:01;11.23;;;3.72;;
32826;SDS011;51059;42.058;27.986;2022-07-10T09:52:28;5.20;;;3.60;;
32826;SDS011;51059;42.058;27.986;2022-07-10T09:54:54;6.03;;;3.85;;
32826;SDS011;51059;42.058;27.986;2022-07-10T09:57:21;14.95;;;3.67;;
32826;SDS011;51059;42.058;27.986;2022-07-10T09:59:51;6.88;;;3.67;;
32826;SDS011;51059;42.058;27.986;2022-07-10T10:02:17;8.60;;;3.75;;
32826;SDS011;51059;42.058;27.986;2022-07-10T10:04:45;7.78;;;3.90;;
32826;SDS011;51059;42.058;27.986;2022-07-10T10:07:11;6.35;;;3.83;;
32826;SDS011;51059;42.058;27.986;2022-07-10T10:09:46;12.52;;;4.20;;
32826;SDS011;51059;42.058;27.986;2022-07-10T10:12:32;8.80;;;3.78;;
32826;SDS011;51059;42.058;27.986;2022-07-10T10:15:01;8.48;;;3.63;;
32826;SDS011;51059;42.058;27.986;2022-07-10T10:17:27;6.85;;;3.88;;
32826;SDS011;51059;42.058;27.986;2022-07-10T10:19:54;7.68;;;3.90;;
32826;SDS011;51059;42.058;27.986;2022-07-10T10:22:40;7.10;;;4.35;;
32826;SDS011;51059;42.058;27.986;2022-07-10T10:25:06;11.10;;;4.25;;
32826;SDS011;51059;42.058;27.986;2022-07-10T10:27:32;9.48;;;4.38;;
32826;SDS011;51059;42.058;27.986;2022-07-10T10:29:58;13.43;;;4.00;;
32826;SDS011;51059;42.058;27.986;2022-07-10T10:32:24;11.70;;;4.00;;
32826;SDS011;51059;42.058;27.986;2022-07-10T10:34:49;10.13;;;3.88;;
32826;SDS011;51059;42.058;27.986;2022-07-10T10:39:56;12.00;;;3.95;;
32826;SDS011;51059;42.058;27.986;2022-07-10T10:42:36;5.50;;;3.70;;
32826;SDS011;51059;42.058;27.986;2022-07-10T10:48:07;6.50;;;4.00;;
32826;SDS011;51059;42.058;27.986;2022-07-10T10:50:50;5.97;;;3.80;;
32826;SDS011;51059;42.058;27.986;2022-07-10T11:01:05;10.57;;;3.90;;
32826;SDS011;51059;42.058;27.986;2022-07-10T11:09:30;10.15;;;3.92;;
32826;SDS011;51059;42.058;27.986;2022-07-10T11:11:57;6.75;;;3.53;;
32826;SDS011;51059;42.058;27.986;2022-07-10T11:14:23;8.82;;;3.22;;
32826;SDS011;51059;42.058;27.986;2022-07-10T11:16:54;7.22;;;3.67;;
32826;SDS011;51059;42.058;27.986;2022-07-10T11:19:21;6.93;;;3.90;;
32826;SDS011;51059;42.058;27.986;2022-07-10T11:21:47;10.80;;;4.03;;
32826;SDS011;51059;42.058;27.986;2022-07-10T11:24:42;14.48;;;3.60;;
32826;SDS011;51059;42.058;27.986;2022-07-10T11:29:59;4.65;;;3.35;;
32826;SDS011;51059;42.058;27.986;2022-07-10T11:32:25;5.68;;;3.42;;
32826;SDS011;51059;42.058;27.986;2022-07-10T11:34:51;6.50;;;3.10;;
32826;SDS011;51059;42.058;27.986;2022-07-10T11:37:17;5.40;;;3.15;;
32826;SDS011;51059;42.058;27.986;2022-07-10T11:39:43;5.05;;;2.95;;
32826;SDS011;51059;42.058;27.986;2022-07-10T11:42:09;10.88;;;3.40;;
32826;SDS011;51059;42.058;27.986;2022-07-10T11:44:34;4.93;;;3.58;;
32826;SDS011;51059;42.058;27.986;2022-07-10T11:47:00;6.90;;;3.60;;
32826;SDS011;51059;42.058;27.986;2022-07-10T11:49:28;7.95;;;3.50;;
32826;SDS011;51059;42.058;27.986;2022-07-10T11:51:55;3.95;;;3.30;;
32826;SDS011;51059;42.058;27.986;2022-07-10T11:54:26;7.95;;;3.50;;
32826;SDS011;51059;42.058;27.986;2022-07-10T11:56:52;9.10;;;3.40;;
32826;SDS011;51059;42.058;27.986;2022-07-10T11:59:23;3.58;;;3.28;;
32826;SDS011;51059;42.058;27.986;2022-07-10T12:01:50;6.45;;;3.50;;
32826;SDS011;51059;42.058;27.986;2022-07-10T12:04:18;5.70;;;3.58;;
32826;SDS011;51059;42.058;27.986;2022-07-10T12:06:45;7.93;;;3.65;;
32826;SDS011;51059;42.058;27.986;2022-07-10T12:09:16;4.57;;;3.72;;
32826;SDS011;51059;42.058;27.986;2022-07-10T12:11:42;8.68;;;3.72;;
32826;SDS011;51059;42.058;27.986;2022-07-10T12:14:10;11.00;;;3.85;;
32826;SDS011;51059;42.058;27.986;2022-07-10T12:16:47;5.93;;;3.53;;
32826;SDS011;51059;42.058;27.986;2022-07-10T12:19:24;4.10;;;3.35;;
32826;SDS011;51059;42.058;27.986;2022-07-10T12:21:52;5.28;;;3.88;;
32826;SDS011;51059;42.058;27.986;2022-07-10T12:24:18;5.88;;;3.28;;
32826;SDS011;51059;42.058;27.986;2022-07-10T12:26:48;7.10;;;3.67;;
32826;SDS011;51059;42.058;27.986;2022-07-10T12:31:43;5.47;;;3.70;;
32826;SDS011;51059;42.058;27.986;2022-07-10T12:34:10;6.60;;;3.80;;
32826;SDS011;51059;42.058;27.986;2022-07-10T12:39:16;8.45;;;3.70;;
32826;SDS011;51059;42.058;27.986;2022-07-10T12:47:10;6.22;;;3.83;;
32826;SDS011;51059;42.058;27.986;2022-07-10T12:49:52;4.57;;;3.67;;
32826;SDS011;51059;42.058;27.986;2022-07-10T12:52:21;5.28;;;4.22;;
32826;SDS011;51059;42.058;27.986;2022-07-10T12:55:07;6.32;;;3.53;;
32826;SDS011;51059;42.058;27.986;2022-07-10T13:00:22;4.82;;;3.97;;
32826;SDS011;51059;42.058;27.986;2022-07-10T13:03:00;7.07;;;4.28;;
32826;SDS011;51059;42.058;27.986;2022-07-10T13:08:12;12.40;;;4.30;;
32826;SDS011;51059;42.058;27.986;2022-07-10T13:10:41;7.70;;;4.10;;
32826;SDS011;51059;42.058;27.986;2022-07-10T13:13:07;4.38;;;3.92;;
32826;SDS011;51059;42.058;27.986;2022-07-10T13:15:33;5.55;;;3.92;;
32826;SDS011;51059;42.058;27.986;2022-07-10T13:18:05;8.65;;;4.00;;
32826;SDS011;51059;42.058;27.986;2022-07-10T13:20:33;9.45;;;4.22;;
32826;SDS011;51059;42.058;27.986;2022-07-10T13:22:59;7.60;;;4.20;;
32826;SDS011;51059;42.058;27.986;2022-07-10T13:25:24;7.00;;;4.20;;
32826;SDS011;51059;42.058;27.986;2022-07-10T13:27:50;5.57;;;3.90;;
32826;SDS011;51059;42.058;27.986;2022-07-10T13:30:16;8.88;;;4.38;;
32826;SDS011;51059;42.058;27.986;2022-07-10T13:32:42;11.85;;;4.45;;
32826;SDS011;51059;42.058;27.986;2022-07-10T13:35:08;9.55;;;4.40;;
32826;SDS011;51059;42.058;27.986;2022-07-10T13:37:34;5.85;;;4.05;;
32826;SDS011;51059;42.058;27.986;2022-07-10T13:40:00;9.68;;;4.32;;
32826;SDS011;51059;42.058;27.986;2022-07-10T13:42:25;8.70;;;4.20;;
32826;SDS011;51059;42.058;27.986;2022-07-10T13:44:51;9.10;;;4.40;;
32826;SDS011;51059;42.058;27.986;2022-07-10T13:47:17;10.25;;;4.40;;
32826;SDS011;51059;42.058;27.986;2022-07-10T13:49:42;7.70;;;4.40;;
32826;SDS011;51059;42.058;27.986;2022-07-10T13:52:08;8.82;;;4.10;;
32826;SDS011;51059;42.058;27.986;2022-07-10T13:54:34;6.75;;;4.05;;
32826;SDS011;51059;42.058;27.986;2022-07-10T13:56:59;9.15;;;3.97;;
32826;SDS011;51059;42.058;27.986;2022-07-10T13:59:26;11.40;;;4.32;;
32826;SDS011;51059;42.058;27.986;2022-07-10T14:01:52;10.82;;;4.75;;
32826;SDS011;51059;42.058;27.986;2022-07-10T14:04:18;10.00;;;4.60;;
32826;SDS011;51059;42.058;27.986;2022-07-10T14:06:43;7.75;;;4.35;;
32826;SDS011;51059;42.058;27.986;2022-07-10T14:09:09;7.75;;;5.07;;
32826;SDS011;51059;42.058;27.986;2022-07-10T14:11:34;5.70;;;4.32;;
32826;SDS011;51059;42.058;27.986;2022-07-10T14:14:00;8.40;;;4.28;;
32826;SDS011;51059;42.058;27.986;2022-07-10T14:16:26;7.75;;;4.38;;
32826;SDS011;51059;42.058;27.986;2022-07-10T14:18:52;9.52;;;4.63;;
32826;SDS011;51059;42.058;27.986;2022-07-10T14:21:19;6.47;;;4.10;;
32826;SDS011;51059;42.058;27.986;2022-07-10T14:23:45;10.52;;;4.57;;
32826;SDS011;51059;42.058;27.986;2022-07-10T14:26:11;6.55;;;4.40;;
32826;SDS011;51059;42.058;27.986;2022-07-10T14:28:37;18.52;;;4.75;;
32826;SDS011;51059;42.058;27.986;2022-07-10T14:31:03;9.98;;;4.78;;
32826;SDS011;51059;42.058;27.986;2022-07-10T14:33:30;5.75;;;4.60;;
32826;SDS011;51059;42.058;27.986;2022-07-10T14:35:57;11.20;;;4.22;;
32826;SDS011;51059;42.058;27.986;2022-07-10T14:38:23;9.85;;;4.63;;
32826;SDS011;51059;42.058;27.986;2022-07-10T14:40:48;19.75;;;5.57;;
32826;SDS011;51059;42.058;27.986;2022-07-10T14:43:16;9.80;;;4.70;;
32826;SDS011;51059;42.058;27.986;2022-07-10T14:45:42;6.65;;;4.32;;
32826;SDS011;51059;42.058;27.986;2022-07-10T14:48:08;15.27;;;5.20;;
32826;SDS011;51059;42.058;27.986;2022-07-10T14:50:34;6.28;;;4.63;;
32826;SDS011;51059;42.058;27.986;2022-07-10T14:52:59;15.90;;;5.10;;
32826;SDS011;51059;42.058;27.986;2022-07-10T14:55:25;12.80;;;5.15;;
32826;SDS011;51059;42.058;27.986;2022-07-10T14:57:50;8.57;;;4.55;;
32826;SDS011;51059;42.058;27.986;2022-07-10T15:00:16;11.23;;;4.85;;
32826;SDS011;51059;42.058;27.986;2022-07-10T15:02:43;7.18;;;4.70;;
32826;SDS011;51059;42.058;27.986;2022-07-10T15:05:09;6.40;;;4.30;;
32826;SDS011;51059;42.058;27.986;2022-07-10T15:07:35;11.77;;;4.97;;